メインページ
METAR-TAF:

METAR-TAF

空港 :

バマコ, マリ共和国

バマコ・セヌー国際空港

緯度: 12-32N, 経度: 007-57W, 海抜: 380m

現時点の気象観測

当レポートは18分前の23:00(UTC)に作成
西/北西の風 4kt
気温 25°C
湿度 94%
気圧 1016 hPa
視程10km以上
高度3000ftの雲はほとんどない

METAR: GABS 272300Z 30004KT 9999 FEW030 25/24 Q1016 NOSIG

時間: 23:18 (23:18 UTC)

予報

当レポートは6時間18分前の17:00(UTC)に作成
予報は27日の 18時(UTC)から 28日の 24時(UTC)まで有効
南/南東の風 8kt
視程10km以上
高度3000ftの雲はほとんどない
確率 40% :
28日の 04時(UTC)から 28日の 10時(UTC)まで一時的に
の風 15kt、最大30ktの突風を伴う
視程: 3000m
高度2600ftの雲は散在している
高度3000ftの雲はほとんどない, 積乱雲.
激しい雷雨, 雨
確率 40% :
28日の 15時(UTC)から 28日の 20時(UTC)まで一時的に
の風 20kt、最大40ktの突風を伴う
視程: 4000m
高度2600ftの雲は散在している
高度3000ftの雲はほとんどない, 積乱雲.
激しい雷雨, 雨

TAF: GABS 271700Z 2718/2824 16008KT 9999 FEW030 PROB40 TEMPO 2804/2810 10015G30KT 3000 TSRA SCT026 FEW030CB PROB40 TEMPO 2815/2820 08020G40KT 4000 TSRA SCT026 FEW030CB

4,000以上の空港の気象観測と天気予報(METAR報とTAF報)

利用可能な観測所は地図上に黄色い丸と赤い丸で示す。

丸の上にカーソルを重ねると観測所名を参照できる。

次にクリックすると気象観測と天気予報を参照できる。

マップの切り替え:黒色「×」印の緑ボタンをクリックして拡大、「-」印の緑ボタンをクリックして縮小、緑色の三角印をクリックして隣りの地図に切り替え


METAR-TAF: